MET'MAP v2.0
soon released !

Expected late october,
this new version will be
more efficient, smarter,
and hosted on a brand new
server x3 powerfull...
...and still free !


Not compatible ?
Try the mobile version !

LOG IN : | Subscribe | Disclaimer | Who is Orbifly ? |
ICAO code :

TAF - LHPR Györ Per - 25 May 2020 05:02 UTC - Data Source NOAA   


- Airport Elevation : 424 ft
- IATA code : QGY
- No reported NOTAMs.


LHPR - Györ Per

Latest METAR recorded : 2015/08/11 07:45 LHPR 110745Z 00000KT CAVOK 29/14 Q1015
TAF TAF LHPR
Valid from the 25 at 03:00 until the 25 at 12:00 UTC


250215Z 2503/2512 28008KT CAVOK
TEMPO 2505/2508 SCT030TCU BKN040
PROB30
TEMPO 2506/2508 SHRA
TEMPO 2508/2512 7000 SHRA SCT025CB BKN040
PROB40
TEMPO 2509/2512 32020G32KT 3000 TSRAGS BKN025CB OVC030

Source NOAA


MET'MAP, your aeronautical weather chart ! - Copyright ORBIFLY December 2007

Programming & Development : Alexandra Zaïnal
Co-Developer : Marc-Olivier Méhu
Technical & hardware support : Manuel Goepfert
Concept & Financing : Baudouin d'Aumeries